sensor_id;sensor_type;location;lat;lon;timestamp;temperature;humidity
4052;DHT22;2040;50.924;11.604;2023-09-18T00:00:28;16.40;99.90
4052;DHT22;2040;50.924;11.604;2023-09-18T00:02:54;16.40;99.90
4052;DHT22;2040;50.924;11.604;2023-09-18T00:05:19;16.30;99.90
4052;DHT22;2040;50.924;11.604;2023-09-18T00:07:45;16.30;99.90
4052;DHT22;2040;50.924;11.604;2023-09-18T00:10:11;16.30;99.90
4052;DHT22;2040;50.924;11.604;2023-09-18T00:12:37;16.30;99.90
4052;DHT22;2040;50.924;11.604;2023-09-18T00:15:04;16.20;99.90
4052;DHT22;2040;50.924;11.604;2023-09-18T00:17:30;16.20;99.90
4052;DHT22;2040;50.924;11.604;2023-09-18T00:19:55;16.10;99.90
4052;DHT22;2040;50.924;11.604;2023-09-18T00:22:21;16.10;99.90
4052;DHT22;2040;50.924;11.604;2023-09-18T00:24:47;16.00;99.90
4052;DHT22;2040;50.924;11.604;2023-09-18T00:27:13;16.10;99.90
4052;DHT22;2040;50.924;11.604;2023-09-18T00:29:39;16.10;99.90
4052;DHT22;2040;50.924;11.604;2023-09-18T00:32:05;16.10;99.90
4052;DHT22;2040;50.924;11.604;2023-09-18T00:34:31;16.10;99.90
4052;DHT22;2040;50.924;11.604;2023-09-18T00:36:59;16.10;99.90
4052;DHT22;2040;50.924;11.604;2023-09-18T00:39:26;16.10;99.90
4052;DHT22;2040;50.924;11.604;2023-09-18T00:41:52;16.00;99.90
4052;DHT22;2040;50.924;11.604;2023-09-18T00:44:20;16.10;99.90
4052;DHT22;2040;50.924;11.604;2023-09-18T00:46:47;16.30;99.90
4052;DHT22;2040;50.924;11.604;2023-09-18T00:49:13;16.10;99.90
4052;DHT22;2040;50.924;11.604;2023-09-18T00:51:39;16.00;99.90
4052;DHT22;2040;50.924;11.604;2023-09-18T00:54:06;16.00;99.90
4052;DHT22;2040;50.924;11.604;2023-09-18T00:56:33;15.90;99.90
4052;DHT22;2040;50.924;11.604;2023-09-18T00:58:59;15.80;99.90
4052;DHT22;2040;50.924;11.604;2023-09-18T01:01:25;15.80;99.90
4052;DHT22;2040;50.924;11.604;2023-09-18T01:03:51;15.80;99.90
4052;DHT22;2040;50.924;11.604;2023-09-18T01:06:19;15.80;99.90
4052;DHT22;2040;50.924;11.604;2023-09-18T01:08:45;15.80;99.90
4052;DHT22;2040;50.924;11.604;2023-09-18T01:11:36;16.10;99.90
4052;DHT22;2040;50.924;11.604;2023-09-18T01:14:14;16.20;99.90
4052;DHT22;2040;50.924;11.604;2023-09-18T01:17:08;16.40;99.90
4052;DHT22;2040;50.924;11.604;2023-09-18T01:19:46;16.30;99.90
4052;DHT22;2040;50.924;11.604;2023-09-18T01:22:13;16.00;99.90
4052;DHT22;2040;50.924;11.604;2023-09-18T01:24:40;16.00;99.90
4052;DHT22;2040;50.924;11.604;2023-09-18T01:27:10;15.80;99.90
4052;DHT22;2040;50.924;11.604;2023-09-18T01:29:36;15.80;99.90
4052;DHT22;2040;50.924;11.604;2023-09-18T01:32:02;15.70;99.90
4052;DHT22;2040;50.924;11.604;2023-09-18T01:34:36;15.50;99.90
4052;DHT22;2040;50.924;11.604;2023-09-18T01:37:03;15.60;99.90
4052;DHT22;2040;50.924;11.604;2023-09-18T01:39:31;15.80;99.90
4052;DHT22;2040;50.924;11.604;2023-09-18T01:41:59;15.70;99.90
4052;DHT22;2040;50.924;11.604;2023-09-18T01:44:27;15.70;99.90
4052;DHT22;2040;50.924;11.604;2023-09-18T01:46:53;15.70;99.90
4052;DHT22;2040;50.924;11.604;2023-09-18T01:49:36;15.80;99.90
4052;DHT22;2040;50.924;11.604;2023-09-18T01:52:22;15.70;99.90
4052;DHT22;2040;50.924;11.604;2023-09-18T01:54:47;15.70;99.90
4052;DHT22;2040;50.924;11.604;2023-09-18T01:57:13;15.60;99.90
4052;DHT22;2040;50.924;11.604;2023-09-18T01:59:39;15.70;99.90
4052;DHT22;2040;50.924;11.604;2023-09-18T02:02:07;15.60;99.90
4052;DHT22;2040;50.924;11.604;2023-09-18T02:04:35;15.50;99.90
4052;DHT22;2040;50.924;11.604;2023-09-18T02:07:00;15.50;99.90
4052;DHT22;2040;50.924;11.604;2023-09-18T02:09:26;15.40;99.90
4052;DHT22;2040;50.924;11.604;2023-09-18T02:11:51;15.30;99.90
4052;DHT22;2040;50.924;11.604;2023-09-18T02:14:17;15.30;99.90
4052;DHT22;2040;50.924;11.604;2023-09-18T02:16:43;15.20;99.90
4052;DHT22;2040;50.924;11.604;2023-09-18T02:19:10;15.10;99.90
4052;DHT22;2040;50.924;11.604;2023-09-18T02:21:36;15.00;99.90
4052;DHT22;2040;50.924;11.604;2023-09-18T02:24:02;15.20;99.90
4052;DHT22;2040;50.924;11.604;2023-09-18T02:26:28;15.10;99.90
4052;DHT22;2040;50.924;11.604;2023-09-18T02:28:54;15.10;99.90
4052;DHT22;2040;50.924;11.604;2023-09-18T02:31:20;15.10;99.90
4052;DHT22;2040;50.924;11.604;2023-09-18T02:33:46;15.10;99.90
4052;DHT22;2040;50.924;11.604;2023-09-18T02:36:13;15.00;99.90
4052;DHT22;2040;50.924;11.604;2023-09-18T02:38:38;15.10;99.90
4052;DHT22;2040;50.924;11.604;2023-09-18T02:41:04;15.00;99.90
4052;DHT22;2040;50.924;11.604;2023-09-18T02:43:30;15.10;99.90
4052;DHT22;2040;50.924;11.604;2023-09-18T02:45:55;15.10;99.90
4052;DHT22;2040;50.924;11.604;2023-09-18T02:48:21;15.00;99.90
4052;DHT22;2040;50.924;11.604;2023-09-18T02:50:46;15.00;99.90
4052;DHT22;2040;50.924;11.604;2023-09-18T02:53:23;15.00;99.90
4052;DHT22;2040;50.924;11.604;2023-09-18T02:55:50;15.10;99.90
4052;DHT22;2040;50.924;11.604;2023-09-18T02:58:16;15.00;99.90
4052;DHT22;2040;50.924;11.604;2023-09-18T03:00:50;15.00;99.90
4052;DHT22;2040;50.924;11.604;2023-09-18T03:03:16;15.10;99.90
4052;DHT22;2040;50.924;11.604;2023-09-18T03:05:43;15.10;99.90
4052;DHT22;2040;50.924;11.604;2023-09-18T03:08:13;15.10;99.90
4052;DHT22;2040;50.924;11.604;2023-09-18T03:10:41;15.10;99.90
4052;DHT22;2040;50.924;11.604;2023-09-18T03:13:08;15.10;99.90
4052;DHT22;2040;50.924;11.604;2023-09-18T03:15:34;15.00;99.90
4052;DHT22;2040;50.924;11.604;2023-09-18T03:18:01;15.00;99.90
4052;DHT22;2040;50.924;11.604;2023-09-18T03:20:28;15.00;99.90
4052;DHT22;2040;50.924;11.604;2023-09-18T03:22:56;15.00;99.90
4052;DHT22;2040;50.924;11.604;2023-09-18T03:25:22;15.00;99.90
4052;DHT22;2040;50.924;11.604;2023-09-18T03:27:50;15.00;99.90
4052;DHT22;2040;50.924;11.604;2023-09-18T03:30:16;14.90;99.90
4052;DHT22;2040;50.924;11.604;2023-09-18T03:32:42;15.00;99.90
4052;DHT22;2040;50.924;11.604;2023-09-18T03:35:08;15.00;99.90
4052;DHT22;2040;50.924;11.604;2023-09-18T03:37:41;14.80;99.90
4052;DHT22;2040;50.924;11.604;2023-09-18T03:40:08;14.60;99.90
4052;DHT22;2040;50.924;11.604;2023-09-18T03:42:36;14.60;99.90
4052;DHT22;2040;50.924;11.604;2023-09-18T03:45:02;14.50;99.90
4052;DHT22;2040;50.924;11.604;2023-09-18T03:47:28;14.60;99.90
4052;DHT22;2040;50.924;11.604;2023-09-18T03:49:54;14.50;99.90
4052;DHT22;2040;50.924;11.604;2023-09-18T03:52:19;14.50;99.90
4052;DHT22;2040;50.924;11.604;2023-09-18T03:54:45;14.40;99.90
4052;DHT22;2040;50.924;11.604;2023-09-18T03:57:10;14.30;99.90
4052;DHT22;2040;50.924;11.604;2023-09-18T03:59:36;14.30;99.90
4052;DHT22;2040;50.924;11.604;2023-09-18T04:02:02;14.30;99.90
4052;DHT22;2040;50.924;11.604;2023-09-18T04:04:28;14.20;99.90
4052;DHT22;2040;50.924;11.604;2023-09-18T04:06:54;14.20;99.90
4052;DHT22;2040;50.924;11.604;2023-09-18T04:09:20;14.20;99.90
4052;DHT22;2040;50.924;11.604;2023-09-18T04:11:45;14.20;99.90
4052;DHT22;2040;50.924;11.604;2023-09-18T04:14:11;14.20;99.90
4052;DHT22;2040;50.924;11.604;2023-09-18T04:16:36;14.20;99.90
4052;DHT22;2040;50.924;11.604;2023-09-18T04:19:03;14.30;99.90
4052;DHT22;2040;50.924;11.604;2023-09-18T04:21:29;14.30;99.90
4052;DHT22;2040;50.924;11.604;2023-09-18T04:23:55;14.30;99.90
4052;DHT22;2040;50.924;11.604;2023-09-18T04:26:26;14.30;99.90
4052;DHT22;2040;50.924;11.604;2023-09-18T04:28:56;14.30;99.90
4052;DHT22;2040;50.924;11.604;2023-09-18T04:31:21;14.20;99.90
4052;DHT22;2040;50.924;11.604;2023-09-18T04:33:47;14.20;99.90
4052;DHT22;2040;50.924;11.604;2023-09-18T04:36:12;14.20;99.90
4052;DHT22;2040;50.924;11.604;2023-09-18T04:38:38;14.20;99.90
4052;DHT22;2040;50.924;11.604;2023-09-18T04:41:03;14.20;99.90
4052;DHT22;2040;50.924;11.604;2023-09-18T04:43:29;14.30;99.90
4052;DHT22;2040;50.924;11.604;2023-09-18T04:45:56;14.50;99.90
4052;DHT22;2040;50.924;11.604;2023-09-18T04:48:21;14.40;99.90
4052;DHT22;2040;50.924;11.604;2023-09-18T04:50:48;14.40;99.90
4052;DHT22;2040;50.924;11.604;2023-09-18T04:53:13;14.40;99.90
4052;DHT22;2040;50.924;11.604;2023-09-18T04:55:39;14.50;99.90
4052;DHT22;2040;50.924;11.604;2023-09-18T04:58:05;14.50;99.90
4052;DHT22;2040;50.924;11.604;2023-09-18T05:00:31;14.50;99.90
4052;DHT22;2040;50.924;11.604;2023-09-18T05:02:59;14.40;99.90
4052;DHT22;2040;50.924;11.604;2023-09-18T05:05:26;14.30;99.90
4052;DHT22;2040;50.924;11.604;2023-09-18T05:07:52;14.20;99.90
4052;DHT22;2040;50.924;11.604;2023-09-18T05:10:18;14.20;99.90
4052;DHT22;2040;50.924;11.604;2023-09-18T05:12:43;14.30;99.90
4052;DHT22;2040;50.924;11.604;2023-09-18T05:15:09;14.20;99.90
4052;DHT22;2040;50.924;11.604;2023-09-18T05:17:46;14.20;99.90
4052;DHT22;2040;50.924;11.604;2023-09-18T05:20:13;14.30;99.90
4052;DHT22;2040;50.924;11.604;2023-09-18T05:22:41;14.30;99.90
4052;DHT22;2040;50.924;11.604;2023-09-18T05:25:11;14.40;99.90
4052;DHT22;2040;50.924;11.604;2023-09-18T05:27:37;14.40;99.90
4052;DHT22;2040;50.924;11.604;2023-09-18T05:30:20;14.30;99.90
4052;DHT22;2040;50.924;11.604;2023-09-18T05:32:47;14.40;99.90
4052;DHT22;2040;50.924;11.604;2023-09-18T05:35:13;14.50;99.90
4052;DHT22;2040;50.924;11.604;2023-09-18T05:37:40;14.70;99.90
4052;DHT22;2040;50.924;11.604;2023-09-18T05:40:08;14.70;99.90
4052;DHT22;2040;50.924;11.604;2023-09-18T05:42:35;14.60;99.90
4052;DHT22;2040;50.924;11.604;2023-09-18T05:45:02;14.50;99.90
4052;DHT22;2040;50.924;11.604;2023-09-18T05:47:32;14.50;99.90
4052;DHT22;2040;50.924;11.604;2023-09-18T05:49:58;14.50;99.90
4052;DHT22;2040;50.924;11.604;2023-09-18T05:52:24;14.70;99.90
4052;DHT22;2040;50.924;11.604;2023-09-18T05:54:50;14.90;99.90
4052;DHT22;2040;50.924;11.604;2023-09-18T05:57:17;15.10;99.90
4052;DHT22;2040;50.924;11.604;2023-09-18T05:59:43;15.20;99.90
4052;DHT22;2040;50.924;11.604;2023-09-18T06:02:11;15.30;99.90
4052;DHT22;2040;50.924;11.604;2023-09-18T06:04:36;15.40;99.90
4052;DHT22;2040;50.924;11.604;2023-09-18T06:07:05;15.40;99.90
4052;DHT22;2040;50.924;11.604;2023-09-18T06:09:31;15.50;99.90
4052;DHT22;2040;50.924;11.604;2023-09-18T06:11:56;15.50;99.90
4052;DHT22;2040;50.924;11.604;2023-09-18T06:14:22;15.60;99.90
4052;DHT22;2040;50.924;11.604;2023-09-18T06:16:48;15.60;99.90
4052;DHT22;2040;50.924;11.604;2023-09-18T06:19:16;15.70;99.90
4052;DHT22;2040;50.924;11.604;2023-09-18T06:21:43;15.80;99.90
4052;DHT22;2040;50.924;11.604;2023-09-18T06:24:09;15.90;99.90
4052;DHT22;2040;50.924;11.604;2023-09-18T06:26:35;16.00;99.90
4052;DHT22;2040;50.924;11.604;2023-09-18T06:29:01;16.10;99.90
4052;DHT22;2040;50.924;11.604;2023-09-18T06:31:27;16.10;99.90
4052;DHT22;2040;50.924;11.604;2023-09-18T06:33:53;16.10;99.90
4052;DHT22;2040;50.924;11.604;2023-09-18T06:36:19;16.10;99.90
4052;DHT22;2040;50.924;11.604;2023-09-18T06:38:44;16.10;99.90
4052;DHT22;2040;50.924;11.604;2023-09-18T06:41:10;16.10;99.90
4052;DHT22;2040;50.924;11.604;2023-09-18T06:43:35;16.10;99.90
4052;DHT22;2040;50.924;11.604;2023-09-18T06:46:01;16.20;99.90
4052;DHT22;2040;50.924;11.604;2023-09-18T06:48:27;16.30;99.90
4052;DHT22;2040;50.924;11.604;2023-09-18T06:50:58;16.40;99.90
4052;DHT22;2040;50.924;11.604;2023-09-18T06:53:23;16.50;99.90
4052;DHT22;2040;50.924;11.604;2023-09-18T06:55:49;16.60;99.90
4052;DHT22;2040;50.924;11.604;2023-09-18T06:58:14;16.70;99.90
4052;DHT22;2040;50.924;11.604;2023-09-18T07:00:40;16.90;99.90
4052;DHT22;2040;50.924;11.604;2023-09-18T07:03:05;16.80;99.90
4052;DHT22;2040;50.924;11.604;2023-09-18T07:05:31;16.70;99.90
4052;DHT22;2040;50.924;11.604;2023-09-18T07:07:57;16.70;99.90
4052;DHT22;2040;50.924;11.604;2023-09-18T07:10:23;16.70;99.90
4052;DHT22;2040;50.924;11.604;2023-09-18T07:12:49;16.80;99.90
4052;DHT22;2040;50.924;11.604;2023-09-18T07:15:14;16.80;99.90
4052;DHT22;2040;50.924;11.604;2023-09-18T07:17:40;16.90;99.90
4052;DHT22;2040;50.924;11.604;2023-09-18T07:20:06;17.10;99.90
4052;DHT22;2040;50.924;11.604;2023-09-18T07:22:39;17.40;99.90
4052;DHT22;2040;50.924;11.604;2023-09-18T07:25:06;17.60;99.90
4052;DHT22;2040;50.924;11.604;2023-09-18T07:27:32;17.90;99.90
4052;DHT22;2040;50.924;11.604;2023-09-18T07:29:58;18.20;99.90
4052;DHT22;2040;50.924;11.604;2023-09-18T07:32:24;18.40;99.90
4052;DHT22;2040;50.924;11.604;2023-09-18T07:34:52;18.70;99.90
4052;DHT22;2040;50.924;11.604;2023-09-18T07:37:17;18.80;99.90
4052;DHT22;2040;50.924;11.604;2023-09-18T07:39:46;19.00;99.90
4052;DHT22;2040;50.924;11.604;2023-09-18T07:42:12;19.10;99.90
4052;DHT22;2040;50.924;11.604;2023-09-18T07:44:37;19.20;99.90
4052;DHT22;2040;50.924;11.604;2023-09-18T07:47:03;19.30;99.90
4052;DHT22;2040;50.924;11.604;2023-09-18T07:49:29;19.30;99.90
4052;DHT22;2040;50.924;11.604;2023-09-18T07:51:55;19.40;99.90
4052;DHT22;2040;50.924;11.604;2023-09-18T07:54:20;19.50;99.90
4052;DHT22;2040;50.924;11.604;2023-09-18T07:56:46;19.50;99.90
4052;DHT22;2040;50.924;11.604;2023-09-18T07:59:11;19.60;99.90
4052;DHT22;2040;50.924;11.604;2023-09-18T08:01:40;19.60;99.90
4052;DHT22;2040;50.924;11.604;2023-09-18T08:04:06;19.60;99.90
4052;DHT22;2040;50.924;11.604;2023-09-18T08:06:31;19.60;99.90
4052;DHT22;2040;50.924;11.604;2023-09-18T08:08:57;19.60;99.90
4052;DHT22;2040;50.924;11.604;2023-09-18T08:11:23;19.60;99.90
4052;DHT22;2040;50.924;11.604;2023-09-18T08:13:49;19.70;99.90
4052;DHT22;2040;50.924;11.604;2023-09-18T08:16:14;19.80;99.90
4052;DHT22;2040;50.924;11.604;2023-09-18T08:18:40;19.90;99.90
4052;DHT22;2040;50.924;11.604;2023-09-18T08:21:07;20.00;99.90
4052;DHT22;2040;50.924;11.604;2023-09-18T08:23:35;20.10;99.90
4052;DHT22;2040;50.924;11.604;2023-09-18T08:26:01;20.20;99.90
4052;DHT22;2040;50.924;11.604;2023-09-18T08:28:29;20.20;99.90
4052;DHT22;2040;50.924;11.604;2023-09-18T08:30:55;20.30;99.90
4052;DHT22;2040;50.924;11.604;2023-09-18T08:33:21;20.30;99.90
4052;DHT22;2040;50.924;11.604;2023-09-18T08:35:46;20.20;99.90
4052;DHT22;2040;50.924;11.604;2023-09-18T08:38:13;20.20;99.90
4052;DHT22;2040;50.924;11.604;2023-09-18T08:40:41;20.20;99.90
4052;DHT22;2040;50.924;11.604;2023-09-18T08:43:08;20.30;99.90
4052;DHT22;2040;50.924;11.604;2023-09-18T08:45:55;20.30;99.90
4052;DHT22;2040;50.924;11.604;2023-09-18T08:48:21;20.30;99.90
4052;DHT22;2040;50.924;11.604;2023-09-18T08:50:48;20.30;99.90
4052;DHT22;2040;50.924;11.604;2023-09-18T08:53:14;20.30;99.90
4052;DHT22;2040;50.924;11.604;2023-09-18T08:55:40;20.40;99.90
4052;DHT22;2040;50.924;11.604;2023-09-18T08:58:07;20.30;99.90
4052;DHT22;2040;50.924;11.604;2023-09-18T09:00:33;20.30;99.90
4052;DHT22;2040;50.924;11.604;2023-09-18T09:03:01;20.30;99.90
4052;DHT22;2040;50.924;11.604;2023-09-18T09:05:26;20.30;99.90
4052;DHT22;2040;50.924;11.604;2023-09-18T09:07:52;20.20;99.90
4052;DHT22;2040;50.924;11.604;2023-09-18T09:10:18;20.30;99.90
4052;DHT22;2040;50.924;11.604;2023-09-18T09:12:53;20.40;99.90
4052;DHT22;2040;50.924;11.604;2023-09-18T09:15:20;20.50;99.90
4052;DHT22;2040;50.924;11.604;2023-09-18T09:17:46;20.70;99.90
4052;DHT22;2040;50.924;11.604;2023-09-18T09:20:13;20.80;99.90
4052;DHT22;2040;50.924;11.604;2023-09-18T09:22:40;21.00;99.90
4052;DHT22;2040;50.924;11.604;2023-09-18T09:25:30;21.10;99.90
4052;DHT22;2040;50.924;11.604;2023-09-18T09:28:01;21.30;99.90
4052;DHT22;2040;50.924;11.604;2023-09-18T09:30:29;21.40;99.90
4052;DHT22;2040;50.924;11.604;2023-09-18T09:32:56;21.40;99.90
4052;DHT22;2040;50.924;11.604;2023-09-18T09:35:27;21.50;99.90
4052;DHT22;2040;50.924;11.604;2023-09-18T09:37:57;21.60;99.90
4052;DHT22;2040;50.924;11.604;2023-09-18T09:40:25;21.60;99.90
4052;DHT22;2040;50.924;11.604;2023-09-18T09:42:55;21.60;99.90
4052;DHT22;2040;50.924;11.604;2023-09-18T09:45:27;21.60;99.90
4052;DHT22;2040;50.924;11.604;2023-09-18T09:47:54;21.60;99.90
4052;DHT22;2040;50.924;11.604;2023-09-18T09:50:20;21.50;99.90
4052;DHT22;2040;50.924;11.604;2023-09-18T09:52:49;21.50;99.90
4052;DHT22;2040;50.924;11.604;2023-09-18T09:55:32;21.40;99.90
4052;DHT22;2040;50.924;11.604;2023-09-18T09:58:01;21.40;99.90
4052;DHT22;2040;50.924;11.604;2023-09-18T10:03:02;21.30;99.90
4052;DHT22;2040;50.924;11.604;2023-09-18T10:05:31;21.30;99.90
4052;DHT22;2040;50.924;11.604;2023-09-18T10:07:59;21.30;99.90
4052;DHT22;2040;50.924;11.604;2023-09-18T10:10:30;21.20;99.90
4052;DHT22;2040;50.924;11.604;2023-09-18T10:13:03;21.20;99.90
4052;DHT22;2040;50.924;11.604;2023-09-18T10:15:32;21.20;99.90
4052;DHT22;2040;50.924;11.604;2023-09-18T10:18:00;21.20;99.90
4052;DHT22;2040;50.924;11.604;2023-09-18T10:20:28;21.10;99.90
4052;DHT22;2040;50.924;11.604;2023-09-18T10:22:57;21.10;99.90
4052;DHT22;2040;50.924;11.604;2023-09-18T10:25:29;21.20;99.90
4052;DHT22;2040;50.924;11.604;2023-09-18T10:27:58;21.20;99.90
4052;DHT22;2040;50.924;11.604;2023-09-18T10:30:29;21.20;99.90
4052;DHT22;2040;50.924;11.604;2023-09-18T10:32:56;21.30;99.90
4052;DHT22;2040;50.924;11.604;2023-09-18T10:35:23;21.40;99.90
4052;DHT22;2040;50.924;11.604;2023-09-18T10:37:49;21.50;99.90
4052;DHT22;2040;50.924;11.604;2023-09-18T10:40:20;21.50;99.90
4052;DHT22;2040;50.924;11.604;2023-09-18T10:42:48;21.60;99.90
4052;DHT22;2040;50.924;11.604;2023-09-18T10:45:15;21.70;99.90
4052;DHT22;2040;50.924;11.604;2023-09-18T10:47:43;21.70;99.90
4052;DHT22;2040;50.924;11.604;2023-09-18T10:50:25;21.50;99.90
4052;DHT22;2040;50.924;11.604;2023-09-18T10:52:51;21.40;99.90
4052;DHT22;2040;50.924;11.604;2023-09-18T10:55:17;21.40;99.90
4052;DHT22;2040;50.924;11.604;2023-09-18T10:57:59;21.30;99.90
4052;DHT22;2040;50.924;11.604;2023-09-18T11:00:25;21.30;99.90
4052;DHT22;2040;50.924;11.604;2023-09-18T11:02:53;21.30;99.90
4052;DHT22;2040;50.924;11.604;2023-09-18T11:05:35;21.30;99.90
4052;DHT22;2040;50.924;11.604;2023-09-18T11:08:58;21.40;99.90
4052;DHT22;2040;50.924;11.604;2023-09-18T11:11:13;21.40;99.90
4052;DHT22;2040;50.924;11.604;2023-09-18T11:13:46;21.50;99.90
4052;DHT22;2040;50.924;11.604;2023-09-18T11:21:30;21.50;99.90
4052;DHT22;2040;50.924;11.604;2023-09-18T11:23:59;21.40;99.90
4052;DHT22;2040;50.924;11.604;2023-09-18T11:26:35;21.50;99.90
4052;DHT22;2040;50.924;11.604;2023-09-18T11:29:03;21.50;99.90
4052;DHT22;2040;50.924;11.604;2023-09-18T11:31:44;21.50;99.90
4052;DHT22;2040;50.924;11.604;2023-09-18T11:34:23;21.60;99.90
4052;DHT22;2040;50.924;11.604;2023-09-18T11:36:52;21.60;99.90
4052;DHT22;2040;50.924;11.604;2023-09-18T11:39:40;21.60;99.90
4052;DHT22;2040;50.924;11.604;2023-09-18T11:44:33;21.50;99.90
4052;DHT22;2040;50.924;11.604;2023-09-18T11:46:59;21.30;99.90
4052;DHT22;2040;50.924;11.604;2023-09-18T11:49:26;21.20;99.90
4052;DHT22;2040;50.924;11.604;2023-09-18T11:51:52;21.00;99.90
4052;DHT22;2040;50.924;11.604;2023-09-18T11:54:19;20.70;99.90
4052;DHT22;2040;50.924;11.604;2023-09-18T11:56:45;20.50;99.90
4052;DHT22;2040;50.924;11.604;2023-09-18T11:59:11;20.30;99.90
4052;DHT22;2040;50.924;11.604;2023-09-18T12:01:37;20.20;99.90
4052;DHT22;2040;50.924;11.604;2023-09-18T12:04:06;20.20;99.90
4052;DHT22;2040;50.924;11.604;2023-09-18T12:06:35;20.20;99.90
4052;DHT22;2040;50.924;11.604;2023-09-18T12:09:02;20.20;99.90
4052;DHT22;2040;50.924;11.604;2023-09-18T12:11:29;20.20;99.90
4052;DHT22;2040;50.924;11.604;2023-09-18T12:13:55;20.10;99.90
4052;DHT22;2040;50.924;11.604;2023-09-18T12:16:21;20.20;99.90
4052;DHT22;2040;50.924;11.604;2023-09-18T12:18:48;20.20;99.90
4052;DHT22;2040;50.924;11.604;2023-09-18T12:21:15;20.30;99.90
4052;DHT22;2040;50.924;11.604;2023-09-18T12:23:43;20.40;99.90
4052;DHT22;2040;50.924;11.604;2023-09-18T12:26:11;20.40;99.90
4052;DHT22;2040;50.924;11.604;2023-09-18T12:28:42;20.40;99.90
4052;DHT22;2040;50.924;11.604;2023-09-18T12:31:15;20.40;99.90
4052;DHT22;2040;50.924;11.604;2023-09-18T12:33:42;20.40;99.90
4052;DHT22;2040;50.924;11.604;2023-09-18T12:36:09;20.50;99.90
4052;DHT22;2040;50.924;11.604;2023-09-18T12:38:36;20.50;99.90
4052;DHT22;2040;50.924;11.604;2023-09-18T12:41:04;20.50;99.90
4052;DHT22;2040;50.924;11.604;2023-09-18T12:43:38;20.40;99.90
4052;DHT22;2040;50.924;11.604;2023-09-18T12:46:05;20.40;99.90
4052;DHT22;2040;50.924;11.604;2023-09-18T12:48:32;20.50;99.90
4052;DHT22;2040;50.924;11.604;2023-09-18T12:51:07;20.50;99.90
4052;DHT22;2040;50.924;11.604;2023-09-18T12:53:33;20.40;99.90
4052;DHT22;2040;50.924;11.604;2023-09-18T12:56:12;20.40;99.90
4052;DHT22;2040;50.924;11.604;2023-09-18T12:58:42;20.40;99.90
4052;DHT22;2040;50.924;11.604;2023-09-18T13:01:11;20.30;99.90
4052;DHT22;2040;50.924;11.604;2023-09-18T13:03:44;20.30;99.90
4052;DHT22;2040;50.924;11.604;2023-09-18T13:06:18;20.30;99.90
4052;DHT22;2040;50.924;11.604;2023-09-18T13:08:45;20.30;99.90
4052;DHT22;2040;50.924;11.604;2023-09-18T13:11:10;20.20;99.90
4052;DHT22;2040;50.924;11.604;2023-09-18T13:13:42;20.10;99.90
4052;DHT22;2040;50.924;11.604;2023-09-18T13:16:11;20.00;99.90
4052;DHT22;2040;50.924;11.604;2023-09-18T13:18:37;20.00;99.90
4052;DHT22;2040;50.924;11.604;2023-09-18T13:21:13;19.90;99.90
4052;DHT22;2040;50.924;11.604;2023-09-18T13:23:39;19.80;99.90
4052;DHT22;2040;50.924;11.604;2023-09-18T13:26:06;19.70;99.90
4052;DHT22;2040;50.924;11.604;2023-09-18T13:28:34;19.60;99.90
4052;DHT22;2040;50.924;11.604;2023-09-18T13:31:05;19.50;99.90
4052;DHT22;2040;50.924;11.604;2023-09-18T13:33:31;19.40;99.90
4052;DHT22;2040;50.924;11.604;2023-09-18T13:35:59;19.30;99.90
4052;DHT22;2040;50.924;11.604;2023-09-18T13:38:24;19.20;99.90
4052;DHT22;2040;50.924;11.604;2023-09-18T13:40:53;19.10;99.90
4052;DHT22;2040;50.924;11.604;2023-09-18T13:43:20;19.00;99.90
4052;DHT22;2040;50.924;11.604;2023-09-18T13:45:48;19.00;99.90
4052;DHT22;2040;50.924;11.604;2023-09-18T13:48:17;19.00;99.90
4052;DHT22;2040;50.924;11.604;2023-09-18T13:50:43;19.00;99.90
4052;DHT22;2040;50.924;11.604;2023-09-18T13:53:08;19.00;99.90
4052;DHT22;2040;50.924;11.604;2023-09-18T13:55:35;18.90;99.90
4052;DHT22;2040;50.924;11.604;2023-09-18T13:58:00;18.80;99.90
4052;DHT22;2040;50.924;11.604;2023-09-18T14:00:28;18.80;99.90
4052;DHT22;2040;50.924;11.604;2023-09-18T14:02:54;18.80;99.90
4052;DHT22;2040;50.924;11.604;2023-09-18T14:05:20;18.80;99.90
4052;DHT22;2040;50.924;11.604;2023-09-18T14:07:45;18.70;99.90
4052;DHT22;2040;50.924;11.604;2023-09-18T14:10:11;18.70;99.90
4052;DHT22;2040;50.924;11.604;2023-09-18T14:12:41;18.80;99.90
4052;DHT22;2040;50.924;11.604;2023-09-18T14:15:08;18.80;99.90
4052;DHT22;2040;50.924;11.604;2023-09-18T14:17:37;18.70;99.90
4052;DHT22;2040;50.924;11.604;2023-09-18T14:20:04;18.70;99.90
4052;DHT22;2040;50.924;11.604;2023-09-18T14:22:35;18.70;99.90
4052;DHT22;2040;50.924;11.604;2023-09-18T14:25:02;18.80;99.90
4052;DHT22;2040;50.924;11.604;2023-09-18T14:27:30;18.80;99.90
4052;DHT22;2040;50.924;11.604;2023-09-18T14:29:56;18.90;99.90
4052;DHT22;2040;50.924;11.604;2023-09-18T14:32:22;18.90;99.90
4052;DHT22;2040;50.924;11.604;2023-09-18T14:34:48;19.00;99.90
4052;DHT22;2040;50.924;11.604;2023-09-18T14:37:13;19.00;99.90
4052;DHT22;2040;50.924;11.604;2023-09-18T14:39:39;19.10;99.90
4052;DHT22;2040;50.924;11.604;2023-09-18T14:42:05;19.20;99.90
4052;DHT22;2040;50.924;11.604;2023-09-18T14:44:30;19.10;99.90
4052;DHT22;2040;50.924;11.604;2023-09-18T14:46:56;19.20;99.90
4052;DHT22;2040;50.924;11.604;2023-09-18T14:49:22;19.20;99.90
4052;DHT22;2040;50.924;11.604;2023-09-18T14:51:48;19.20;99.90
4052;DHT22;2040;50.924;11.604;2023-09-18T14:54:15;19.20;99.90
4052;DHT22;2040;50.924;11.604;2023-09-18T14:56:41;19.30;99.90
4052;DHT22;2040;50.924;11.604;2023-09-18T14:59:07;19.40;99.90
4052;DHT22;2040;50.924;11.604;2023-09-18T15:01:35;19.40;99.90
4052;DHT22;2040;50.924;11.604;2023-09-18T15:04:00;19.50;99.90
4052;DHT22;2040;50.924;11.604;2023-09-18T15:06:26;19.60;99.90
4052;DHT22;2040;50.924;11.604;2023-09-18T15:08:52;19.60;99.90
4052;DHT22;2040;50.924;11.604;2023-09-18T15:11:18;19.60;99.90
4052;DHT22;2040;50.924;11.604;2023-09-18T15:13:44;19.60;99.90
4052;DHT22;2040;50.924;11.604;2023-09-18T15:16:10;19.70;99.90
4052;DHT22;2040;50.924;11.604;2023-09-18T15:18:35;19.70;99.90
4052;DHT22;2040;50.924;11.604;2023-09-18T15:21:02;19.70;99.90
4052;DHT22;2040;50.924;11.604;2023-09-18T15:23:28;19.70;99.90
4052;DHT22;2040;50.924;11.604;2023-09-18T15:25:55;19.60;99.90
4052;DHT22;2040;50.924;11.604;2023-09-18T15:28:22;19.60;99.90
4052;DHT22;2040;50.924;11.604;2023-09-18T15:30:50;19.50;99.90
4052;DHT22;2040;50.924;11.604;2023-09-18T15:33:16;19.50;99.90
4052;DHT22;2040;50.924;11.604;2023-09-18T15:35:43;19.40;99.90
4052;DHT22;2040;50.924;11.604;2023-09-18T15:38:09;19.40;99.90
4052;DHT22;2040;50.924;11.604;2023-09-18T15:40:35;19.30;99.90
4052;DHT22;2040;50.924;11.604;2023-09-18T15:43:00;19.30;99.90
4052;DHT22;2040;50.924;11.604;2023-09-18T15:45:26;19.20;99.90
4052;DHT22;2040;50.924;11.604;2023-09-18T15:47:52;19.20;99.90
4052;DHT22;2040;50.924;11.604;2023-09-18T15:50:17;19.20;99.90
4052;DHT22;2040;50.924;11.604;2023-09-18T15:52:44;19.20;99.90
4052;DHT22;2040;50.924;11.604;2023-09-18T15:55:10;19.20;99.90
4052;DHT22;2040;50.924;11.604;2023-09-18T15:57:37;19.20;99.90